ADDS METAR Data INFO
IDs: Format: Raw Decoded Include TAF

Data at: 2045 UTC 16 Dec 2017

KF17 162035Z AUTO 10007KT 10SM BKN100 11/02 A3013 RMK AO2 T01080016
KF17 162015Z AUTO 11003KT 10SM OVC100 11/01 A3013 RMK AO2 T01100013
KF17 161955Z AUTO 11004KT 10SM OVC100 11/01 A3015 RMK AO2 T01050008
KF17 161935Z AUTO 15005KT 10SM OVC100 11/01 A3016 RMK AO2 T01050011
KF17 161915Z AUTO 12007KT 10SM OVC100 10/01 A3016 RMK AO2 T01040007
KF17 161855Z AUTO 16003KT 10SM OVC100 10/01 A3018 RMK AO2 T01040009
KF17 161835Z AUTO 00000KT 10SM OVC100 10/01 A3019 RMK AO2 T01000014
KF17 161815Z AUTO 15003KT 10SM OVC100 10/01 A3021 RMK AO2 T00980013
KF17 161755Z AUTO 15005KT 10SM OVC110 10/01 A3022 RMK AO2 T01000013 10100 21017
KF17 161735Z AUTO 19006KT 10SM OVC100 09/01 A3023 RMK AO2 T00920012
KF17 161715Z AUTO 10007KT 10SM BKN100 09/01 A3023 RMK AO2 T00870010
KF17 161655Z AUTO 17006KT 10SM SCT100 08/01 A3025 RMK AO2 T00840013
KF17 161635Z AUTO 16006KT 10SM CLR 08/01 A3025 RMK AO2 T00810009
KF17 161615Z AUTO 16005KT 10SM CLR 09/02 A3025 RMK AO2 T00860022
KF17 161555Z AUTO 16007KT 10SM CLR 08/03 A3025 RMK AO2 T00820027
KF17 161535Z AUTO 13007KT 10SM CLR 07/03 A3025 RMK AO2 T00710028
KF17 161515Z AUTO 13004KT 10SM CLR 06/03 A3025 RMK AO2 T00570030
KF17 161455Z AUTO 00000KT 10SM CLR 04/02 A3024 RMK AO2 T00400024
KF17 161435Z AUTO 00000KT 10SM CLR 02/01 A3024 RMK AO2 T00230012
KF17 161415Z AUTO 00000KT 10SM CLR 00/00 A3024 RMK AO2 T00001005
KF17 161355Z AUTO 00000KT 10SM CLR M01/M02 A3025 RMK AO2 T10111017
KF17 161335Z AUTO 00000KT 10SM CLR M02/M02 A3024 RMK AO2 T10161025
KF17 161315Z AUTO 00000KT 10SM CLR M02/M02 A3024 RMK AO2 T10161023
KF17 161255Z AUTO 00000KT 10SM CLR M02/M02 A3024 RMK AO2 T10161023
KF17 161235Z AUTO 00000KT 10SM CLR M01/M02 A3024 RMK AO2 T10141021
KF17 161215Z AUTO 00000KT 10SM CLR M01/M02 A3023 RMK AO2 T10131019
KF17 161155Z AUTO 00000KT 10SM CLR M01/M02 A3023 RMK AO2 T10121020 10002 21015
KF17 161135Z AUTO 00000KT 10SM CLR M01/M02 A3022 RMK AO2 T10131021
KF17 161115Z AUTO 00000KT 10SM CLR M01/M02 A3022 RMK AO2 T10111023
KF17 161055Z AUTO 00000KT 10SM CLR M01/M02 A3022 RMK AO2 T10121021
KF17 161035Z AUTO 00000KT 10SM CLR M01/M02 A3023 RMK AO2 T10101020
KF17 161015Z AUTO 00000KT 10SM CLR M01/M02 A3024 RMK AO2 T10141021
KF17 160955Z AUTO 00000KT 10SM CLR M01/M02 A3024 RMK AO2 T10131020
KF17 160935Z AUTO 00000KT 10SM CLR M01/M02 A3024 RMK AO2 T10121020
KF17 160915Z AUTO 00000KT 10SM CLR M01/M02 A3024 RMK AO2 T10131021
KF17 160855Z AUTO 00000KT 10SM CLR M01/M02 A3024 RMK AO2 T10101017
KF17 160835Z AUTO 00000KT 10SM CLR M01/M02 A3025 RMK AO2 T10101016
KF17 160815Z AUTO 00000KT 10SM CLR M01/M02 A3025 RMK AO2 T10101020
KF17 160755Z AUTO 00000KT 10SM CLR M01/M01 A3024 RMK AO2 T10071015
KF17 160735Z AUTO 00000KT 10SM CLR M01/M02 A3024 RMK AO2 T10111018
KF17 160715Z AUTO 00000KT 10SM CLR M01/M02 A3024 RMK AO2 T10101016
KF17 160655Z AUTO 00000KT 10SM CLR 00/M01 A3024 RMK AO2 T10051010
KF17 160635Z AUTO 00000KT 7SM CLR 00/M01 A3025 RMK AO2 T10051012
KF17 160615Z AUTO 00000KT 10SM CLR 00/M01 A3025 RMK AO2 T10011012
KF17 160555Z AUTO 00000KT 10SM CLR 00/M01 A3026 RMK AO2 T00011006 10065 20001 401180001
KF17 160535Z AUTO 00000KT 10SM CLR 00/00 A3027 RMK AO2 T00041002
KF17 160515Z AUTO 00000KT 10SM CLR 01/00 A3027 RMK AO2 T00061001
KF17 160455Z AUTO 00000KT 10SM CLR 01/00 A3027 RMK AO2 T00070000
KF17 160435Z AUTO 00000KT 10SM CLR 01/00 A3027 RMK AO2 T00100000
KF17 160415Z AUTO 00000KT 10SM CLR 01/00 A3026 RMK AO2 T00101004
KF17 160355Z AUTO 00000KT 10SM CLR 01/00 A3027 RMK AO2 T00101002
KF17 160335Z AUTO 00000KT 10SM CLR 02/00 A3026 RMK AO2 T00211002
KF17 160315Z AUTO 00000KT 10SM CLR 01/00 A3027 RMK AO2 T00100000
KF17 160255Z AUTO 00000KT 10SM CLR 02/00 A3026 RMK AO2 T00160000
KF17 160235Z AUTO 00000KT 10SM CLR 02/00 A3026 RMK AO2 T00220001
KF17 160215Z AUTO 00000KT 10SM CLR 02/00 A3026 RMK AO2 T00210001
KF17 160155Z AUTO 00000KT 10SM CLR 02/00 A3026 RMK AO2 T00210000
KF17 160135Z AUTO 00000KT 10SM CLR 02/00 A3026 RMK AO2 T00200004
KF17 160115Z AUTO 00000KT 10SM CLR 03/00 A3026 RMK AO2 T00320001
KF17 160055Z AUTO 00000KT 10SM CLR 04/00 A3026 RMK AO2 T00370004
KF17 160035Z AUTO 00000KT 10SM CLR 05/00 A3025 RMK AO2 T00450003
KF17 160015Z AUTO 00000KT 10SM CLR 05/01 A3025 RMK AO2 T00500009
KF17 152355Z AUTO 00000KT 10SM CLR 07/01 A3024 RMK AO2 T00650005 10118 20065
KF17 152335Z AUTO 11003KT 10SM CLR 07/00 A3023 RMK AO2 T00700004
KF17 152315Z AUTO 00000KT 10SM CLR 08/00 A3023 RMK AO2 T00750000
KF17 152255Z AUTO 00000KT 10SM CLR 10/M02 A3023 RMK AO2 T01031021
KF17 152235Z AUTO 00000KT 10SM CLR 11/M02 A3023 RMK AO2 T01091023
KF17 152215Z AUTO 14003KT 10SM CLR 12/M02 A3023 RMK AO2 T01171023
KF17 152155Z AUTO 00000KT 10SM CLR 11/M03 A3023 RMK AO2 T01101027
KF17 152135Z AUTO 00000KT 10SM CLR 11/M03 A3023 RMK AO2 T01101026
KF17 152115Z AUTO 23003KT 10SM CLR 11/M03 A3024 RMK AO2 T01121030
KF17 152055Z AUTO 10SM CLR 11/M03 A3024 RMK AO2 T01141030
KF17 152035Z AUTO 21005KT 10SM CLR 12/M03 A3024 RMK AO2 T01151027
KF17 152015Z AUTO 00000KT 10SM CLR 11/M03 A3025 RMK AO2 T01051028
KF17 151955Z AUTO 10SM CLR 11/M02 A3025 RMK AO2 T01071022
KF17 151935Z AUTO 10SM CLR 10/M03 A3026 RMK AO2 T01011030
KF17 151915Z AUTO 10SM CLR 10/M03 A3027 RMK AO2 T01011031
KF17 151855Z AUTO 10SM CLR 10/M03 A3027 RMK AO2 T00981030
KF17 151835Z AUTO 10SM CLR 09/M03 A3029 RMK AO2 T00901028
KF17 151815Z AUTO 00000KT 10SM CLR 09/M03 A3029 RMK AO2 T00881028
KF17 151755Z AUTO 00000KT 10SM CLR 09/M03 A3031 RMK AO2 T00851029 10086 20021
KF17 151735Z AUTO 00000KT 10SM CLR 09/M02 A3031 RMK AO2 T00851024
KF17 151715Z AUTO 00000KT 10SM CLR 08/M02 A3033 RMK AO2 T00801024
KF17 151655Z AUTO 06003KT 10SM CLR 07/M02 A3034 RMK AO2 T00731024
KF17 151635Z AUTO 00000KT 10SM CLR 06/M03 A3033 RMK AO2 T00611027
KF17 151615Z AUTO 08003KT 10SM CLR 06/M02 A3033 RMK AO2 T00611025
KF17 151555Z AUTO 03003KT 10SM CLR 06/M03 A3033 RMK AO2 T00571026
KF17 151535Z AUTO 10SM CLR 05/M02 A3031 RMK AO2 T00511024
KF17 151515Z AUTO 00000KT 10SM CLR 05/M02 A3031 RMK AO2 T00471017
KF17 151455Z AUTO 00000KT 10SM CLR 04/M02 A3031 RMK AO2 T00411016
KF17 151435Z AUTO 00000KT 10SM CLR 04/M02 A3030 RMK AO2 T00401017
KF17 151415Z AUTO 33003KT 10SM CLR 04/M01 A3029 RMK AO2 T00361014
KF17 151355Z AUTO 10SM CLR 03/M01 A3028 RMK AO2 T00331012
KF17 151335Z AUTO 34004KT 10SM CLR 03/M02 A3026 RMK AO2 T00331020
KF17 151315Z AUTO 34004KT 10SM CLR 03/M02 A3025 RMK AO2 T00321016
KF17 151255Z AUTO 34006KT 10SM CLR 03/M01 A3025 RMK AO2 T00301013
KF17 151235Z AUTO 33008KT 10SM CLR 03/M01 A3024 RMK AO2 T00301011
KF17 151215Z AUTO 35005KT 10SM CLR 02/M01 A3023 RMK AO2 T00231007
KF17 151155Z AUTO 00000KT 10SM CLR 03/M01 A3023 RMK AO2 T00251006 10060 20023
KF17 151135Z AUTO 00000KT 10SM CLR 03/M01 A3023 RMK AO2 T00301013
KF17 151115Z AUTO 00000KT 10SM CLR 04/M02 A3023 RMK AO2 T00351017
KF17 151055Z AUTO 35003KT 10SM CLR 04/M02 A3023 RMK AO2 T00381019
KF17 151035Z AUTO 36003KT 10SM CLR 04/M02 A3023 RMK AO2 T00381020
KF17 151015Z AUTO 35004KT 10SM CLR 04/M02 A3022 RMK AO2 T00411020
KF17 150955Z AUTO 36004KT 10SM CLR 05/M02 A3022 RMK AO2 T00451023
KF17 150935Z AUTO 36007KT 10SM CLR 05/M02 A3021 RMK AO2 T00471023
KF17 150915Z AUTO 36007KT 10SM CLR 05/M02 A3021 RMK AO2 T00511024
KF17 150855Z AUTO 35007KT 10SM CLR 05/M02 A3021 RMK AO2 T00511022